Time;durP1;ratioP1;P1;durP2;ratioP2;P2;SDS_P1;SDS_P2;PMS_P1;PMS_P2;Temp;Humidity;BMP_temperature;BMP_pressure;BME280_temperature;BME280_humidity;BME280_pressure;Samples;Min_cycle;Max_cycle;Signal;HPM_P1;HPM_P2
2022/12/11 00:00:49;;;;;;;30.90;15.95;;;0.70;99.90;;;;;;5035870;28;20048;-83
2022/12/11 00:03:16;;;;;;;37.83;17.58;;;0.70;99.90;;;;;;5053262;28;20052;-84
2022/12/11 00:05:42;;;;;;;41.03;18.45;;;0.70;99.90;;;;;;5036506;28;20048;-83
2022/12/11 00:08:07;;;;;;;28.45;15.68;;;0.70;99.90;;;;;;5054044;28;20051;-83
2022/12/11 00:10:33;;;;;;;37.28;18.27;;;0.70;99.90;;;;;;5035576;28;20049;-83
2022/12/11 00:12:59;;;;;;;36.63;16.55;;;0.70;99.90;;;;;;5053297;28;20063;-83
2022/12/11 00:15:25;;;;;;;37.97;17.42;;;0.70;99.90;;;;;;5053319;28;20037;-83
2022/12/11 00:17:50;;;;;;;42.33;19.15;;;0.70;99.90;;;;;;5053263;28;20064;-83
2022/12/11 00:20:16;;;;;;;35.15;16.83;;;0.70;99.90;;;;;;5052031;28;20033;-83
2022/12/11 00:22:42;;;;;;;38.60;17.33;;;0.70;99.90;;;;;;5035393;28;20492;-83
2022/12/11 00:25:08;;;;;;;37.88;18.52;;;0.70;99.90;;;;;;5034311;28;20464;-83
2022/12/11 00:27:34;;;;;;;32.85;16.02;;;0.70;99.90;;;;;;5040171;28;20051;-83
2022/12/11 00:29:59;;;;;;;31.50;15.07;;;0.70;99.90;;;;;;5042710;28;20045;-83
2022/12/11 00:32:26;;;;;;;36.28;16.73;;;0.70;99.90;;;;;;5052129;28;20033;-83
2022/12/11 00:34:51;;;;;;;35.97;16.50;;;0.70;99.90;;;;;;5037530;28;20084;-83
2022/12/11 00:37:17;;;;;;;30.80;15.63;;;0.70;99.90;;;;;;5052080;28;20131;-83
2022/12/11 00:39:42;;;;;;;34.08;17.45;;;0.70;99.90;;;;;;5034352;28;20411;-83
2022/12/11 00:42:08;;;;;;;35.60;16.83;;;0.70;99.90;;;;;;5034450;28;20120;-83
2022/12/11 00:44:34;;;;;;;31.75;15.50;;;0.70;99.90;;;;;;5053059;28;20049;-83
2022/12/11 00:47:00;;;;;;;31.00;16.13;;;0.80;99.90;;;;;;5051742;28;20060;-83
2022/12/11 00:49:26;;;;;;;34.72;17.33;;;0.80;99.90;;;;;;5056834;28;20130;-83
2022/12/11 00:51:52;;;;;;;34.70;16.55;;;0.80;99.90;;;;;;5034964;28;20045;-83
2022/12/11 00:54:17;;;;;;;33.03;16.83;;;0.80;99.90;;;;;;5033684;28;20102;-83
2022/12/11 00:56:43;;;;;;;32.97;16.55;;;0.80;99.90;;;;;;5051998;28;20055;-83
2022/12/11 00:59:08;;;;;;;40.55;18.05;;;0.80;99.90;;;;;;5052231;28;20037;-83
2022/12/11 01:01:34;;;;;;;33.10;16.67;;;0.80;99.90;;;;;;5054476;28;20036;-83
2022/12/11 01:04:00;;;;;;;35.05;16.42;;;0.80;99.90;;;;;;5045390;28;20143;-83
2022/12/11 01:06:27;;;;;;;32.95;16.45;;;0.80;99.90;;;;;;5037466;28;20037;-83
2022/12/11 01:11:38;;;;;;;28.77;15.18;;;0.80;99.90;;;;;;5053203;28;20052;-83
2022/12/11 01:14:04;;;;;;;37.28;17.02;;;0.80;99.90;;;;;;5057012;28;20049;-83
2022/12/11 01:16:29;;;;;;;30.65;15.70;;;0.80;99.90;;;;;;5051643;28;20068;-83
2022/12/11 01:18:56;;;;;;;34.63;16.98;;;0.80;99.90;;;;;;5034636;28;20449;-83
2022/12/11 01:21:22;;;;;;;34.53;16.38;;;0.80;99.90;;;;;;5051717;28;20045;-83
2022/12/11 01:23:49;;;;;;;41.67;17.33;;;0.80;99.90;;;;;;5052730;28;20073;-83
2022/12/11 01:26:15;;;;;;;32.70;15.82;;;0.80;99.90;;;;;;5034775;28;20076;-83
2022/12/11 01:28:42;;;;;;;42.38;17.10;;;0.80;99.90;;;;;;5040240;28;20570;-83
2022/12/11 01:31:09;;;;;;;42.75;18.05;;;0.90;99.90;;;;;;5053884;28;20045;-83
2022/12/11 01:33:35;;;;;;;39.30;18.45;;;0.90;99.90;;;;;;5056433;28;20480;-83
2022/12/11 01:36:06;;;;;;;38.88;17.98;;;0.90;99.90;;;;;;5055950;28;20044;-83
2022/12/11 01:38:32;;;;;;;32.28;15.10;;;0.90;99.90;;;;;;5038751;28;20501;-83
2022/12/11 01:40:57;;;;;;;45.13;19.00;;;0.90;99.90;;;;;;5038812;28;20076;-83
2022/12/11 01:43:23;;;;;;;38.90;17.25;;;0.90;99.90;;;;;;5055361;28;20037;-83
2022/12/11 01:45:49;;;;;;;37.35;16.95;;;0.90;99.90;;;;;;5056123;28;20037;-83
2022/12/11 01:48:24;;;;;;;37.92;17.05;;;0.90;99.90;;;;;;5038944;28;20135;-83
2022/12/11 01:50:57;;;;;;;38.20;17.52;;;0.90;99.90;;;;;;5055344;28;20052;-83
2022/12/11 01:53:32;;;;;;;41.63;18.27;;;0.90;99.90;;;;;;5056156;28;20041;-83
2022/12/11 01:55:58;;;;;;;43.95;18.45;;;0.90;99.90;;;;;;5055372;28;20443;-83
2022/12/11 01:58:29;;;;;;;45.85;18.02;;;0.90;99.90;;;;;;5037204;28;20063;-83
2022/12/11 02:00:56;;;;;;;41.60;17.75;;;0.90;99.90;;;;;;5060699;28;20048;-83
2022/12/11 02:03:21;;;;;;;35.58;16.17;;;0.90;99.90;;;;;;5037808;28;20049;-83
2022/12/11 02:05:47;;;;;;;43.55;17.92;;;0.90;99.90;;;;;;5055054;28;20055;-83
2022/12/11 02:08:14;;;;;;;36.38;16.13;;;0.90;99.90;;;;;;5037951;28;20041;-83
2022/12/11 02:11:00;;;;;;;38.90;16.30;;;0.90;99.90;;;;;;5054872;28;20106;-83
2022/12/11 02:13:41;;;;;;;36.15;17.17;;;0.90;99.90;;;;;;5037511;28;20488;-83
2022/12/11 02:16:21;;;;;;;37.13;17.00;;;0.90;99.90;;;;;;5073965;28;20484;-83
2022/12/11 02:19:14;;;;;;;42.50;18.08;;;0.90;99.90;;;;;;5056820;28;20123;-83
2022/12/11 02:21:49;;;;;;;37.53;16.08;;;0.90;99.90;;;;;;5038545;28;20128;-83
2022/12/11 02:24:42;;;;;;;43.50;17.98;;;0.90;99.90;;;;;;5037641;28;20037;-83
2022/12/11 02:27:10;;;;;;;32.83;16.42;;;0.90;99.90;;;;;;5037278;28;20047;-83
2022/12/11 02:29:38;;;;;;;40.08;17.23;;;0.90;99.90;;;;;;5073821;28;20511;-83
2022/12/11 02:32:15;;;;;;;38.13;16.73;;;0.90;99.90;;;;;;5057266;28;20462;-83
2022/12/11 02:34:56;;;;;;;36.17;16.23;;;0.90;99.90;;;;;;5045145;28;20091;-84
2022/12/11 02:37:24;;;;;;;36.97;16.17;;;1.00;99.90;;;;;;5055519;28;20385;-83
2022/12/11 02:39:53;;;;;;;35.15;15.68;;;0.90;99.90;;;;;;5036419;28;20080;-83
2022/12/11 02:42:21;;;;;;;39.20;15.80;;;1.00;99.90;;;;;;5050209;28;20048;-83
2022/12/11 02:44:49;;;;;;;38.65;16.13;;;1.00;99.90;;;;;;5037553;28;20037;-84
2022/12/11 02:47:17;;;;;;;33.72;15.05;;;1.00;99.90;;;;;;5036538;28;20075;-83
2022/12/11 02:49:45;;;;;;;33.47;15.05;;;1.00;99.90;;;;;;5037139;28;20059;-83
2022/12/11 02:52:14;;;;;;;33.38;15.10;;;1.00;99.90;;;;;;5054758;28;20029;-83
2022/12/11 02:54:42;;;;;;;31.90;14.85;;;1.00;99.90;;;;;;5035957;28;20041;-83
2022/12/11 02:57:13;;;;;;;37.10;15.75;;;1.00;99.90;;;;;;5044685;28;20071;-83
2022/12/11 02:59:42;;;;;;;30.20;14.90;;;1.00;99.90;;;;;;5061959;28;20044;-83
2022/12/11 03:02:11;;;;;;;31.95;15.15;;;1.00;99.90;;;;;;5053811;28;20492;-83
2022/12/11 03:04:37;;;;;;;33.67;15.38;;;1.00;99.90;;;;;;5063788;28;20369;-83
2022/12/11 03:07:10;;;;;;;34.30;15.95;;;1.00;99.90;;;;;;5053715;28;20040;-84
2022/12/11 03:09:37;;;;;;;;;;;1.00;99.90;;;;;;5023815;28;20079;-83
2022/12/11 03:12:04;;;;;;;32.30;13.77;;;1.00;99.90;;;;;;5091013;28;19920;-83
2022/12/11 03:14:30;;;;;;;35.00;14.88;;;1.00;99.90;;;;;;5042114;28;20032;-83
2022/12/11 03:17:06;;;;;;;34.47;15.05;;;1.00;99.90;;;;;;5037000;28;20123;-83
2022/12/11 03:19:37;;;;;;;34.28;14.20;;;1.00;99.90;;;;;;5054606;28;20139;-83
2022/12/11 03:22:11;;;;;;;38.05;16.10;;;1.10;99.90;;;;;;5022233;28;20032;-84
2022/12/11 03:24:51;;;;;;;30.25;13.95;;;1.10;99.90;;;;;;5036211;28;20053;-83
2022/12/11 03:27:35;;;;;;;29.90;14.05;;;1.10;99.90;;;;;;5036231;28;20045;-83
2022/12/11 03:30:09;;;;;;;31.10;14.05;;;1.10;99.90;;;;;;5064881;28;20500;-84
2022/12/11 03:32:47;;;;;;;29.13;13.07;;;1.10;99.90;;;;;;5036544;28;20405;-84
2022/12/11 03:35:33;;;;;;;33.80;13.80;;;1.10;99.90;;;;;;5053249;28;20045;-84
2022/12/11 03:38:14;;;;;;;29.80;13.88;;;1.10;99.90;;;;;;5037096;28;20045;-83
2022/12/11 03:40:44;;;;;;;32.42;14.00;;;1.10;99.90;;;;;;5057821;28;20045;-84
2022/12/11 03:43:11;;;;;;;28.08;13.27;;;1.10;99.90;;;;;;5035709;28;20385;-84
2022/12/11 03:45:38;;;;;;;30.90;13.90;;;1.10;99.90;;;;;;5036055;28;20442;-84
2022/12/11 03:48:06;;;;;;;31.05;14.52;;;1.10;99.90;;;;;;5053373;28;20033;-84
2022/12/11 03:50:34;;;;;;;32.53;15.10;;;1.10;99.90;;;;;;5035527;28;20052;-84
2022/12/11 03:53:02;;;;;;;31.25;14.57;;;1.10;99.90;;;;;;5053525;28;20041;-84
2022/12/11 03:55:29;;;;;;;28.67;13.90;;;1.20;99.90;;;;;;5047027;28;20181;-84
2022/12/11 03:57:55;;;;;;;34.47;14.98;;;1.10;99.90;;;;;;5056657;28;20048;-84
2022/12/11 04:00:21;;;;;;;34.33;14.48;;;1.10;99.90;;;;;;5035976;28;20084;-84
2022/12/11 04:03:11;;;;;;;32.67;14.50;;;1.20;99.90;;;;;;5053432;28;20037;-83
2022/12/11 04:05:35;;;;;;;32.53;14.95;;;1.20;99.90;;;;;;5035814;28;20045;-84
2022/12/11 04:08:01;;;;;;;33.95;14.80;;;1.10;99.90;;;;;;5059809;28;20044;-84
2022/12/11 04:10:27;;;;;;;30.50;13.65;;;1.10;99.90;;;;;;5045195;28;20053;-83
2022/12/11 04:12:53;;;;;;;31.70;14.48;;;1.20;99.90;;;;;;5035380;28;20044;-83
2022/12/11 04:15:18;;;;;;;32.33;14.10;;;1.20;99.90;;;;;;5035220;28;20049;-83
2022/12/11 04:26:12;;;;;;;31.58;14.27;;;1.20;99.90;;;;;;5015197;28;20511;-84
2022/12/11 04:28:39;;;;;;;36.88;16.35;;;1.20;99.90;;;;;;5030498;28;20614;-84
2022/12/11 04:31:05;;;;;;;42.53;17.45;;;1.20;99.90;;;;;;5053326;28;20400;-83
2022/12/11 04:33:30;;;;;;;35.10;15.55;;;1.20;99.90;;;;;;5034115;28;20045;-83
2022/12/11 04:35:57;;;;;;;48.78;19.05;;;1.20;99.90;;;;;;5053758;28;20048;-84
2022/12/11 04:38:23;;;;;;;39.97;16.95;;;1.20;99.90;;;;;;5035885;28;20099;-84
2022/12/11 04:40:55;;;;;;;35.75;15.93;;;1.20;99.90;;;;;;5035693;28;20049;-84
2022/12/11 04:43:21;;;;;;;32.45;15.10;;;1.20;99.90;;;;;;5034870;28;20523;-83
2022/12/11 04:45:46;;;;;;;31.23;14.82;;;1.20;99.90;;;;;;5034229;28;20045;-84
2022/12/11 04:48:12;;;;;;;36.38;16.33;;;1.20;99.90;;;;;;5052710;28;20049;-84
2022/12/11 04:50:38;;;;;;;36.03;15.88;;;1.20;99.90;;;;;;5052821;28;20182;-84
2022/12/11 04:53:03;;;;;;;35.45;15.45;;;1.20;99.90;;;;;;5062055;28;20037;-84
2022/12/11 04:55:29;;;;;;;39.45;15.60;;;1.20;99.90;;;;;;5052272;28;20041;-84
2022/12/11 04:57:54;;;;;;;31.85;14.57;;;1.20;99.90;;;;;;5053171;28;20055;-83
2022/12/11 05:00:20;;;;;;;34.83;15.32;;;1.20;99.90;;;;;;5051498;28;20037;-83
2022/12/11 05:02:46;;;;;;;35.72;15.35;;;1.20;99.90;;;;;;5052777;28;20037;-83
2022/12/11 05:05:11;;;;;;;32.47;14.32;;;1.20;99.90;;;;;;5055036;28;20037;-84
2022/12/11 05:07:37;;;;;;;34.72;15.50;;;1.30;99.90;;;;;;5052198;28;20041;-83
2022/12/11 05:10:04;;;;;;;37.20;16.70;;;1.30;99.90;;;;;;5052065;28;20052;-84
2022/12/11 05:12:31;;;;;;;37.92;15.43;;;1.30;99.90;;;;;;5052618;28;20041;-83
2022/12/11 05:14:56;;;;;;;41.22;17.63;;;1.30;99.90;;;;;;5045444;28;20072;-84
2022/12/11 05:17:22;;;;;;;41.83;16.85;;;1.30;99.90;;;;;;5052479;28;20114;-84
2022/12/11 05:19:49;;;;;;;33.70;16.10;;;1.30;99.90;;;;;;5037832;28;20403;-84
2022/12/11 05:22:16;;;;;;;49.78;18.80;;;1.30;99.90;;;;;;5034364;28;20491;-84
2022/12/11 05:24:41;;;;;;;44.00;17.23;;;1.30;99.90;;;;;;5034325;28;20102;-84
2022/12/11 05:27:07;;;;;;;31.73;15.35;;;1.30;99.90;;;;;;5052668;28;20044;-84
2022/12/11 05:29:32;;;;;;;34.22;15.18;;;1.30;99.90;;;;;;5034152;28;20124;-84
2022/12/11 05:31:58;;;;;;;38.33;16.30;;;1.30;99.90;;;;;;5034911;28;20037;-84
2022/12/11 05:34:24;;;;;;;33.38;15.85;;;1.30;99.90;;;;;;5053394;28;20095;-84
2022/12/11 05:36:49;;;;;;;34.58;15.73;;;1.30;99.90;;;;;;5066688;28;20476;-84
2022/12/11 05:39:15;;;;;;;33.58;15.00;;;1.30;99.90;;;;;;5034097;28;20041;-83
2022/12/11 05:41:41;;;;;;;33.05;14.52;;;1.30;99.90;;;;;;5051982;28;20388;-84
2022/12/11 05:44:08;;;;;;;32.67;14.88;;;1.30;99.90;;;;;;5034973;28;20049;-84
2022/12/11 05:46:34;;;;;;;32.13;15.35;;;1.30;99.90;;;;;;5033609;28;20045;-84
2022/12/11 05:49:01;;;;;;;33.72;15.05;;;1.30;99.90;;;;;;5034079;28;20052;-83
2022/12/11 05:51:28;;;;;;;31.98;15.20;;;1.30;99.90;;;;;;5038612;28;20135;-84
2022/12/11 05:53:55;;;;;;;32.75;14.57;;;1.30;99.90;;;;;;5051459;28;20115;-84
2022/12/11 05:56:27;;;;;;;30.30;14.43;;;1.30;99.90;;;;;;5033772;28;20072;-84
2022/12/11 05:58:53;;;;;;;31.88;15.40;;;1.30;99.90;;;;;;5034735;28;20049;-84
2022/12/11 06:01:28;;;;;;;33.28;15.07;;;1.30;99.90;;;;;;5051966;28;20049;-84
2022/12/11 06:03:55;;;;;;;33.63;15.35;;;1.30;99.90;;;;;;5048418;28;20037;-84
2022/12/11 06:06:21;;;;;;;33.28;14.45;;;1.30;99.90;;;;;;5039422;28;20134;-84
2022/12/11 06:08:55;;;;;;;35.25;15.25;;;1.30;99.90;;;;;;5052315;28;20064;-84
2022/12/11 06:11:22;;;;;;;33.35;14.98;;;1.30;99.90;;;;;;5062255;28;20439;-84
2022/12/11 06:13:48;;;;;;;28.90;14.00;;;1.30;99.90;;;;;;5052145;28;20112;-84
2022/12/11 06:16:13;;;;;;;34.75;15.65;;;1.30;99.90;;;;;;5052630;28;20429;-84
2022/12/11 06:18:42;;;;;;;33.17;14.90;;;1.30;99.90;;;;;;5037706;28;20044;-84
2022/12/11 06:21:16;;;;;;;36.08;15.38;;;1.30;99.90;;;;;;5055836;28;20033;-84
2022/12/11 06:23:43;;;;;;;36.30;14.93;;;1.30;99.90;;;;;;5047810;28;20044;-84
2022/12/11 06:26:09;;;;;;;32.47;14.50;;;1.30;99.90;;;;;;5027542;28;20036;-84
2022/12/11 06:28:35;;;;;;;35.97;16.20;;;1.30;99.90;;;;;;5055356;28;20041;-84
2022/12/11 06:31:01;;;;;;;32.33;14.27;;;1.30;99.90;;;;;;5036260;28;20118;-84
2022/12/11 06:33:27;;;;;;;34.83;16.13;;;1.30;99.90;;;;;;5058591;28;20458;-83
2022/12/11 06:35:52;;;;;;;40.05;17.27;;;1.30;99.90;;;;;;5038027;28;20132;-84
2022/12/11 06:38:18;;;;;;;41.55;17.85;;;1.30;99.90;;;;;;5074603;28;20044;-83
2022/12/11 06:40:44;;;;;;;32.40;14.80;;;1.30;99.90;;;;;;5057411;28;20041;-84
2022/12/11 06:43:09;;;;;;;34.40;15.68;;;1.30;99.90;;;;;;5057237;28;20123;-84
2022/12/11 06:45:39;;;;;;;49.55;19.52;;;1.30;99.90;;;;;;5051130;28;20086;-84
2022/12/11 06:48:04;;;;;;;34.58;14.80;;;1.40;99.90;;;;;;5069628;28;20041;-84
2022/12/11 06:50:30;;;;;;;42.97;17.70;;;1.30;99.90;;;;;;5065227;28;20059;-84
2022/12/11 06:52:56;;;;;;;37.50;16.05;;;1.30;99.90;;;;;;5035008;28;20071;-83
2022/12/11 06:55:22;;;;;;;37.67;15.68;;;1.30;99.90;;;;;;5053991;28;20412;-84
2022/12/11 06:57:47;;;;;;;35.85;15.85;;;1.30;99.90;;;;;;5057856;28;20037;-83
2022/12/11 07:00:14;;;;;;;40.47;18.35;;;1.30;99.90;;;;;;5052857;28;20132;-84
2022/12/11 07:02:39;;;;;;;32.63;15.35;;;1.30;99.90;;;;;;5039524;28;20036;-83
2022/12/11 07:05:05;;;;;;;44.95;17.80;;;1.30;99.90;;;;;;5057669;28;20186;-84
2022/12/11 07:07:32;;;;;;;34.13;14.70;;;1.40;99.90;;;;;;5052160;28;20078;-83
2022/12/11 07:09:57;;;;;;;34.45;15.90;;;1.40;99.90;;;;;;5053029;28;20102;-83
2022/12/11 07:12:23;;;;;;;36.30;16.70;;;1.40;99.90;;;;;;5053614;28;20045;-84
2022/12/11 07:14:49;;;;;;;49.65;19.30;;;1.40;99.90;;;;;;5038398;28;20207;-84
2022/12/11 07:17:14;;;;;;;48.20;19.35;;;1.40;99.90;;;;;;5047508;28;20041;-84
2022/12/11 07:19:40;;;;;;;33.50;15.45;;;1.40;99.90;;;;;;5053460;28;20048;-84
2022/12/11 07:22:06;;;;;;;33.55;15.52;;;1.40;99.90;;;;;;5050061;28;20048;-83
2022/12/11 07:24:31;;;;;;;33.78;15.43;;;1.40;99.90;;;;;;5053089;28;20068;-84
2022/12/11 07:26:57;;;;;;;33.28;15.55;;;1.40;99.90;;;;;;5055904;28;20055;-84
2022/12/11 07:29:23;;;;;;;32.45;15.80;;;1.40;99.90;;;;;;5073280;28;20055;-89
2022/12/11 07:31:49;;;;;;;34.45;14.98;;;1.40;99.90;;;;;;5057084;28;20037;-89
2022/12/11 07:34:15;;;;;;;32.15;14.90;;;1.40;99.90;;;;;;5055670;28;20032;-90
2022/12/11 07:36:41;;;;;;;45.15;18.65;;;1.40;99.90;;;;;;5057079;28;20045;-91
2022/12/11 07:39:07;;;;;;;34.53;16.15;;;1.40;99.90;;;;;;5041028;28;20095;-84
2022/12/11 07:41:34;;;;;;;32.55;15.65;;;1.40;99.90;;;;;;5034127;28;20054;-84
2022/12/11 07:44:00;;;;;;;37.05;16.20;;;1.40;99.90;;;;;;5044734;28;20040;-84
2022/12/11 07:46:27;;;;;;;45.78;18.88;;;1.40;99.90;;;;;;5036650;28;20048;-85
2022/12/11 07:48:53;;;;;;;42.58;18.08;;;1.40;99.90;;;;;;5051555;28;20055;-84
2022/12/11 07:51:36;;;;;;;38.95;17.73;;;1.40;99.90;;;;;;5035789;28;20048;-84
2022/12/11 07:54:06;;;;;;;45.60;19.33;;;1.40;99.90;;;;;;5053739;28;20045;-85
2022/12/11 07:56:33;;;;;;;52.83;20.45;;;1.40;99.90;;;;;;5060926;28;20071;-83
2022/12/11 07:59:03;;;;;;;51.28;21.48;;;1.40;99.90;;;;;;5051412;28;20060;-84
2022/12/11 08:01:30;;;;;;;46.92;19.42;;;1.40;99.90;;;;;;5038340;28;20045;-84
2022/12/11 08:03:56;;;;;;;49.13;21.10;;;1.40;99.90;;;;;;5034563;28;20476;-83
2022/12/11 08:06:28;;;;;;;37.40;16.95;;;1.40;99.90;;;;;;5033778;28;20080;-84
2022/12/11 08:08:54;;;;;;;49.67;20.55;;;1.30;99.90;;;;;;5042278;28;20136;-83
2022/12/11 08:11:20;;;;;;;38.13;16.88;;;1.40;99.90;;;;;;5022804;28;20048;-84
2022/12/11 08:13:45;;;;;;;41.83;18.92;;;1.40;99.90;;;;;;5074590;28;20183;-84
2022/12/11 08:16:13;;;;;;;40.80;17.65;;;1.40;99.90;;;;;;5034856;28;20042;-84
2022/12/11 08:18:39;;;;;;;40.28;18.30;;;1.40;99.90;;;;;;5032544;28;20052;-83
2022/12/11 08:21:10;;;;;;;42.90;18.23;;;1.40;99.90;;;;;;5032310;28;20053;-83
2022/12/11 08:23:36;;;;;;;42.72;18.48;;;1.40;99.90;;;;;;5043029;28;20049;-84
2022/12/11 08:26:03;;;;;;;42.45;18.10;;;1.40;99.90;;;;;;5050304;28;20432;-84
2022/12/11 08:28:29;;;;;;;38.10;16.85;;;1.40;99.90;;;;;;5032424;28;20049;-84
2022/12/11 08:30:55;;;;;;;44.53;19.10;;;1.40;99.90;;;;;;5041860;28;20135;-84
2022/12/11 08:33:20;;;;;;;43.42;18.80;;;1.40;99.90;;;;;;5039060;28;20061;-85
2022/12/11 08:35:46;;;;;;;38.58;17.40;;;1.40;99.90;;;;;;5034688;28;20111;-85
2022/12/11 08:38:12;;;;;;;35.88;16.17;;;1.40;99.90;;;;;;5054157;28;20041;-85
2022/12/11 08:40:37;;;;;;;40.70;16.80;;;1.40;99.90;;;;;;5065947;28;20044;-85
2022/12/11 08:43:03;;;;;;;36.47;16.65;;;1.40;99.90;;;;;;5035022;28;20056;-84
2022/12/11 08:45:28;;;;;;;34.92;16.42;;;1.40;99.90;;;;;;5054190;28;20041;-84
2022/12/11 08:47:54;;;;;;;39.65;18.58;;;1.40;99.90;;;;;;5036738;28;20072;-85
2022/12/11 08:50:20;;;;;;;37.88;16.80;;;1.40;99.90;;;;;;5068336;28;20131;-84
2022/12/11 08:52:45;;;;;;;37.67;17.58;;;1.40;99.90;;;;;;5034559;28;20072;-84
2022/12/11 08:55:11;;;;;;;65.88;29.67;;;1.40;99.90;;;;;;5034911;28;20067;-84
2022/12/11 08:57:40;;;;;;;41.00;17.92;;;1.40;99.90;;;;;;5053483;28;20087;-84
2022/12/11 09:00:08;;;;;;;37.55;16.98;;;1.40;99.90;;;;;;5052487;28;20041;-84
2022/12/11 09:02:34;;;;;;;48.38;21.92;;;1.40;99.90;;;;;;5053763;28;20045;-85
2022/12/11 09:05:00;;;;;;;35.58;17.17;;;1.40;99.90;;;;;;5053555;28;20071;-84
2022/12/11 09:07:26;;;;;;;35.63;18.05;;;1.40;99.90;;;;;;5034987;28;20029;-84
2022/12/11 09:09:54;;;;;;;40.15;17.85;;;1.40;99.90;;;;;;5053496;28;20057;-85
2022/12/11 09:12:20;;;;;;;34.88;17.08;;;1.40;99.90;;;;;;5053254;28;20460;-84
2022/12/11 09:14:45;;;;;;;42.70;18.75;;;1.50;99.90;;;;;;5035136;28;20090;-84
2022/12/11 09:17:11;;;;;;;45.70;18.98;;;1.40;99.90;;;;;;5053137;28;20041;-84
2022/12/11 09:19:37;;;;;;;44.42;20.05;;;1.40;99.90;;;;;;5034313;28;20048;-85
2022/12/11 09:22:02;;;;;;;40.35;17.20;;;1.50;99.90;;;;;;5035553;28;20455;-85
2022/12/11 09:24:28;;;;;;;40.42;18.13;;;1.50;99.90;;;;;;5035399;28;20484;-84
2022/12/11 09:26:54;;;;;;;40.67;18.00;;;1.40;99.90;;;;;;5034352;28;20469;-85
2022/12/11 09:29:19;;;;;;;49.35;20.88;;;1.50;99.90;;;;;;5034857;28;20037;-85
2022/12/11 09:31:45;;;;;;;44.75;19.92;;;1.50;99.90;;;;;;5052925;28;20045;-85
2022/12/11 09:34:12;;;;;;;42.92;19.20;;;1.50;99.90;;;;;;5052019;28;20473;-85
2022/12/11 09:36:40;;;;;;;46.90;20.67;;;1.40;99.90;;;;;;5052927;28;20045;-84
2022/12/11 09:39:07;;;;;;;48.72;19.70;;;1.40;99.90;;;;;;5035120;28;20060;-84
2022/12/11 09:41:35;;;;;;;39.60;18.05;;;1.50;99.90;;;;;;5052145;28;20045;-84
2022/12/11 09:44:30;;;;;;;38.28;17.73;;;1.50;99.90;;;;;;5053012;28;20040;-85
2022/12/11 09:46:57;;;;;;;39.78;17.52;;;1.50;99.90;;;;;;5035282;28;20472;-84
2022/12/11 09:49:25;;;;;;;47.72;20.50;;;1.50;99.90;;;;;;5051588;28;20491;-84
2022/12/11 09:52:24;;;;;;;37.70;16.85;;;1.50;99.90;;;;;;5069781;28;20480;-85
2022/12/11 09:54:56;;;;;;;44.75;19.38;;;1.50;99.90;;;;;;5031292;28;20059;-84
2022/12/11 09:57:40;;;;;;;40.10;18.73;;;1.50;99.90;;;;;;5055932;28;20064;-85
2022/12/11 10:00:19;;;;;;;38.38;17.67;;;1.50;99.90;;;;;;5056727;28;20041;-84
2022/12/11 10:03:03;;;;;;;37.70;16.52;;;1.50;99.90;;;;;;5055764;28;20037;-85
2022/12/11 10:05:34;;;;;;;;;;;1.50;99.90;;;;;;5056648;28;20055;-84
2022/12/11 10:08:18;;;;;;;36.53;16.50;;;1.50;99.90;;;;;;5038445;28;20430;-84
2022/12/11 10:10:56;;;;;;;36.78;17.48;;;1.50;99.90;;;;;;5055662;28;20044;-85
2022/12/11 10:13:46;;;;;;;40.10;17.98;;;1.50;99.90;;;;;;5038070;28;20332;-85
2022/12/11 10:16:30;;;;;;;40.38;18.15;;;1.50;99.90;;;;;;5054755;28;20861;-85
2022/12/11 10:18:58;;;;;;;37.97;17.20;;;1.60;99.90;;;;;;5056207;28;20075;-85
2022/12/11 10:21:25;;;;;;;36.65;16.27;;;1.60;99.90;;;;;;5037639;28;20140;-84
2022/12/11 10:23:59;;;;;;;45.42;20.45;;;1.60;99.90;;;;;;5037388;28;20051;-84
2022/12/11 10:26:27;;;;;;;33.67;17.25;;;1.60;99.90;;;;;;5055940;28;20110;-85
2022/12/11 10:28:57;;;;;;;38.08;17.17;;;1.60;99.90;;;;;;5071487;28;20136;-85
2022/12/11 10:32:08;;;;;;;35.00;17.08;;;1.60;99.90;;;;;;5055049;28;20049;-85
2022/12/11 10:34:39;;;;;;;33.80;16.75;;;1.60;99.90;;;;;;5034009;28;20099;-85
2022/12/11 10:37:05;;;;;;;35.42;15.63;;;1.60;99.90;;;;;;5037013;28;20554;-85
2022/12/11 10:39:30;;;;;;;37.78;17.75;;;1.60;99.90;;;;;;5038088;28;20044;-85
2022/12/11 10:41:57;;;;;;;38.42;17.88;;;1.60;99.90;;;;;;5038037;28;20045;-85
2022/12/11 10:44:28;;;;;;;32.78;16.10;;;1.60;99.90;;;;;;5054577;28;20045;-85
2022/12/11 10:47:16;;;;;;;36.75;16.92;;;1.70;99.90;;;;;;5055814;28;20369;-85
2022/12/11 10:49:50;;;;;;;37.65;17.63;;;1.70;99.90;;;;;;5037718;28;20094;-85
2022/12/11 10:52:44;;;;;;;38.47;16.65;;;1.70;99.90;;;;;;5054499;28;20037;-85
2022/12/11 10:55:27;;;;;;;38.70;17.42;;;1.70;99.90;;;;;;5026854;28;20405;-85
2022/12/11 10:57:59;;;;;;;39.25;18.80;;;1.60;99.90;;;;;;5055188;28;20515;-85
2022/12/11 11:00:40;;;;;;;37.53;17.58;;;1.70;99.90;;;;;;5036445;28;20072;-85
2022/12/11 11:03:25;;;;;;;38.72;17.58;;;1.70;99.90;;;;;;5037356;28;20045;-84
2022/12/11 11:06:16;;;;;;;48.05;19.95;;;1.70;99.90;;;;;;5037083;28;20389;-85
2022/12/11 11:08:44;;;;;;;36.95;16.67;;;1.70;99.90;;;;;;5037419;28;20485;-85
2022/12/11 11:11:20;;;;;;;37.65;17.85;;;1.70;99.90;;;;;;5036718;28;20106;-83
2022/12/11 11:13:46;;;;;;;35.97;16.70;;;1.70;99.90;;;;;;5047048;28;20051;-85
2022/12/11 11:16:16;;;;;;;37.88;17.77;;;1.70;99.90;;;;;;5054753;28;20115;-84
2022/12/11 11:18:50;;;;;;;38.17;17.23;;;1.70;99.90;;;;;;5041175;28;20044;-85
2022/12/11 11:21:19;;;;;;;38.65;18.55;;;1.70;99.90;;;;;;5043908;28;20511;-83
2022/12/11 11:23:45;;;;;;;40.17;18.10;;;1.70;99.90;;;;;;5054811;28;20047;-83
2022/12/11 11:26:11;;;;;;;35.30;16.58;;;1.70;99.90;;;;;;5035234;28;20033;-85
2022/12/11 11:28:40;;;;;;;36.55;17.27;;;1.70;99.90;;;;;;5062506;28;20041;-84
2022/12/11 11:31:12;;;;;;;40.55;18.05;;;1.70;99.90;;;;;;5047914;28;20033;-84
2022/12/11 11:33:56;;;;;;;37.13;17.42;;;1.70;99.90;;;;;;5053292;28;20688;-85
2022/12/11 11:36:27;;;;;;;47.08;19.42;;;1.70;99.90;;;;;;5083173;28;20036;-84
2022/12/11 11:39:12;;;;;;;37.28;16.77;;;1.70;99.90;;;;;;5042972;28;20495;-84
2022/12/11 11:42:02;;;;;;;47.33;20.13;;;1.70;99.90;;;;;;5053879;28;20036;-84
2022/12/11 11:44:43;;;;;;;50.03;20.23;;;1.70;99.90;;;;;;5069005;28;20052;-85
2022/12/11 11:47:20;;;;;;;48.35;20.48;;;1.70;99.90;;;;;;5055354;28;20052;-85
2022/12/11 11:49:58;;;;;;;55.05;24.85;;;1.70;99.90;;;;;;5069986;28;20040;-85
2022/12/11 11:52:58;;;;;;;51.03;22.40;;;1.80;99.90;;;;;;5057472;28;20067;-87
2022/12/11 11:56:09;;;;;;;53.63;20.52;;;1.70;99.90;;;;;;5039335;28;20514;-85
2022/12/11 11:58:44;;;;;;;49.92;19.50;;;1.70;99.90;;;;;;5049540;28;20442;-87
2022/12/11 12:01:20;;;;;;;48.88;20.35;;;1.70;99.90;;;;;;5037676;28;20040;-87
2022/12/11 12:03:47;;;;;;;44.38;19.27;;;1.80;99.90;;;;;;5037581;28;20037;-84
2022/12/11 12:06:24;;;;;;;41.40;18.95;;;1.70;99.90;;;;;;5061991;28;20461;-85
2022/12/11 12:09:13;;;;;;;50.40;19.83;;;1.80;99.90;;;;;;5035319;28;20408;-84
2022/12/11 12:11:54;;;;;;;42.65;18.98;;;1.70;99.90;;;;;;5055377;28;20484;-84
2022/12/11 12:14:20;;;;;;;40.45;18.27;;;1.80;99.90;;;;;;5054687;28;20041;-84
2022/12/11 12:17:03;;;;;;;42.03;19.05;;;1.80;99.90;;;;;;5069504;28;20052;-85
2022/12/11 12:19:47;;;;;;;39.10;17.77;;;1.80;99.90;;;;;;5071515;28;20492;-87
2022/12/11 12:22:43;;;;;;;44.90;19.02;;;1.80;99.90;;;;;;5073328;28;20097;-86
2022/12/11 12:25:23;;;;;;;41.63;18.90;;;1.80;99.90;;;;;;5062225;28;20044;-86
2022/12/11 12:28:07;;;;;;;39.72;18.85;;;1.80;99.90;;;;;;5037413;28;20048;-86
2022/12/11 12:30:50;;;;;;;38.45;17.30;;;1.80;99.90;;;;;;5036210;28;20048;-86
2022/12/11 12:33:26;;;;;;;;;;;1.80;99.90;;;;;;5055153;28;20048;-85
2022/12/11 12:36:04;;;;;;;36.22;17.65;;;1.80;99.90;;;;;;5037335;28;19941;-85
2022/12/11 12:38:53;;;;;;;39.80;18.08;;;1.80;99.90;;;;;;5047895;28;20377;-85
2022/12/11 12:41:49;;;;;;;42.28;17.58;;;1.80;99.90;;;;;;5062542;28;20128;-86
2022/12/11 12:44:18;;;;;;;37.53;17.58;;;1.80;99.90;;;;;;5046331;28;20045;-84
2022/12/11 12:47:12;;;;;;;43.95;19.15;;;1.90;99.90;;;;;;5036363;28;20037;-85
2022/12/11 12:49:41;;;;;;;42.50;18.67;;;1.90;99.90;;;;;;5036864;28;20052;-86
2022/12/11 12:52:20;;;;;;;39.03;18.10;;;1.90;99.90;;;;;;5070681;28;20045;-86
2022/12/11 12:57:36;;;;;;;49.40;22.67;;;1.90;99.90;;;;;;5035807;28;20078;-85
2022/12/11 13:00:03;;;;;;;38.08;18.17;;;1.90;99.90;;;;;;5053472;28;20044;-86
2022/12/11 13:02:29;;;;;;;36.78;18.00;;;1.90;99.90;;;;;;5055807;28;20041;-86
2022/12/11 13:04:59;;;;;;;41.45;19.75;;;1.90;99.90;;;;;;5052082;28;20041;-85
2022/12/11 13:07:29;;;;;;;35.80;17.80;;;1.90;99.90;;;;;;5054097;28;20052;-86